Time;durP1;ratioP1;P1;durP2;ratioP2;P2;SDS_P1;SDS_P2;PMS_P1;PMS_P2;Temp;Humidity;BMP_temperature;BMP_pressure;BME280_temperature;BME280_humidity;BME280_pressure;Samples;Min_cycle;Max_cycle;Signal;HPM_P1;HPM_P2
2023/06/30 00:01:48;;;;;;;;;;;19.20;99.90;;;;;;5020121;28;19913;-78
2023/06/30 00:04:18;;;;;;;;;;;19.10;99.90;;;;;;4997856;28;20031;-78
2023/06/30 00:06:44;;;;;;;;;;;19.10;99.90;;;;;;5013610;28;19968;-79
2023/06/30 00:09:10;;;;;;;;;;;19.10;99.90;;;;;;5019655;28;20416;-79
2023/06/30 00:11:37;;;;;;;;;;;19.00;99.90;;;;;;5003910;28;20058;-79
2023/06/30 00:14:03;;;;;;;;;;;19.00;99.90;;;;;;5035692;28;19978;-79
2023/06/30 00:16:29;;;;;;;;;;;19.00;99.90;;;;;;5013867;28;19921;-79
2023/06/30 00:18:55;;;;;;;;;;;18.90;99.90;;;;;;5020729;28;20011;-79
2023/06/30 00:21:21;;;;;;;;;;;18.80;99.90;;;;;;5021101;28;19912;-79
2023/06/30 00:23:47;;;;;;;;;;;18.80;99.90;;;;;;4998850;28;19921;-79
2023/06/30 00:26:13;;;;;;;;;;;18.70;99.90;;;;;;5035306;28;19928;-78
2023/06/30 00:28:38;;;;;;;;;;;18.70;99.90;;;;;;5021174;28;19909;-79
2023/06/30 00:31:04;;;;;;;;;;;18.60;99.90;;;;;;4998785;28;19924;-79
2023/06/30 00:33:33;;;;;;;;;;;18.50;99.90;;;;;;5020895;28;19917;-78
2023/06/30 00:35:58;;;;;;;;;;;18.50;99.90;;;;;;5003037;28;20357;-79
2023/06/30 00:38:24;;;;;;;;;;;18.40;99.90;;;;;;5020750;28;19924;-80
2023/06/30 00:40:50;;;;;;;;;;;18.40;99.90;;;;;;4997713;28;19947;-78
2023/06/30 00:43:15;;;;;;;;;;;18.40;99.90;;;;;;5015366;28;19935;-79
2023/06/30 00:45:41;;;;;;;;;;;18.40;99.90;;;;;;4995981;28;20059;-79
2023/06/30 00:48:06;;;;;;;;;;;18.30;99.90;;;;;;5016512;28;20836;-79
2023/06/30 00:50:32;;;;;;;;;;;18.30;99.90;;;;;;5037306;28;20265;-78
2023/06/30 00:52:58;;;;;;;;;;;18.30;99.90;;;;;;4999977;28;19959;-78
2023/06/30 00:55:25;;;;;;;;;;;18.20;99.90;;;;;;5001516;28;19913;-78
2023/06/30 00:57:50;;;;;;;;;;;18.10;99.90;;;;;;5000811;28;20039;-79
2023/06/30 01:00:16;;;;;;;;;;;18.10;99.90;;;;;;5024406;28;19986;-79
2023/06/30 01:03:02;;;;;;;;;;;18.10;99.90;;;;;;5001362;28;19913;-79
2023/06/30 01:05:30;;;;;;;;;;;18.00;99.90;;;;;;5025340;28;19960;-78
2023/06/30 01:08:15;;;;;;;;;;;18.00;99.90;;;;;;5038449;28;19920;-78
2023/06/30 01:10:41;;;;;;;;;;;18.00;99.90;;;;;;5038782;28;20453;-79
2023/06/30 01:13:07;;;;;;;;;;;17.90;99.90;;;;;;5037992;28;19912;-79
2023/06/30 01:15:33;;;;;;;;;;;17.90;99.90;;;;;;5038772;28;19920;-78
2023/06/30 01:18:00;;;;;;;;;;;17.90;99.90;;;;;;5037156;28;19921;-78
2023/06/30 01:20:29;;;;;;;;;;;17.80;99.90;;;;;;5023694;28;20398;-78
2023/06/30 01:23:00;;;;;;;;;;;17.80;99.90;;;;;;5038780;28;19921;-79
2023/06/30 01:25:27;;;;;;;;;;;17.80;99.90;;;;;;5023369;28;19988;-78
2023/06/30 01:27:54;;;;;;;;;;;17.80;99.90;;;;;;5006125;28;19913;-78
2023/06/30 01:30:19;;;;;;;;;;;17.70;99.90;;;;;;5006863;28;19913;-78
2023/06/30 01:32:46;;;;;;;;;;;17.70;99.90;;;;;;5024684;28;19919;-78
2023/06/30 01:35:12;;;;;;;;;;;17.60;99.90;;;;;;5001929;28;19913;-78
2023/06/30 01:37:38;;;;;;;;;;;17.60;99.90;;;;;;5039795;28;20031;-78
2023/06/30 01:40:08;;;;;;;;;;;17.60;99.90;;;;;;5000208;28;19920;-78
2023/06/30 01:42:34;;;;;;;;;;;17.60;99.90;;;;;;4999893;28;19936;-78
2023/06/30 01:45:00;;;;;;;;;;;17.50;99.90;;;;;;5023817;28;19967;-79
2023/06/30 01:47:26;;;;;;;;;;;17.50;99.90;;;;;;5023824;28;19913;-78
2023/06/30 01:49:52;;;;;;;;;;;17.50;99.90;;;;;;5023921;28;19996;-78
2023/06/30 01:52:18;;;;;;;;;;;17.50;99.90;;;;;;5023659;28;19913;-77
2023/06/30 01:54:43;;;;;;;;;;;17.40;99.90;;;;;;5018868;28;19924;-78
2023/06/30 01:57:10;;;;;;;;;;;17.40;99.90;;;;;;5017936;28;20373;-79
2023/06/30 01:59:39;;;;;;;;;;;17.40;99.90;;;;;;5039052;28;19909;-78
2023/06/30 02:02:04;;;;;;;;;;;17.40;99.90;;;;;;5001893;28;20033;-78
2023/06/30 02:04:30;;;;;;;;;;;17.30;99.90;;;;;;5023546;28;19924;-78
2023/06/30 02:06:56;;;;;;;;;;;17.30;99.90;;;;;;5010653;28;19916;-78
2023/06/30 02:09:21;;;;;;;;;;;17.20;99.90;;;;;;5012699;28;19909;-78
2023/06/30 02:11:50;;;;;;;;;;;17.20;99.90;;;;;;5034188;28;19913;-78
2023/06/30 02:14:15;;;;;;;;;;;17.10;99.90;;;;;;5025927;28;19909;-78
2023/06/30 02:16:41;;;;;;;;;;;17.10;99.90;;;;;;5024029;28;19943;-78
2023/06/30 02:19:09;;;;;;;;;;;17.10;99.90;;;;;;5001642;28;21650;-79
2023/06/30 02:21:34;;;;;;;;;;;17.00;99.90;;;;;;5003610;28;19913;-79
2023/06/30 02:24:00;;;;;;;;;;;17.00;99.90;;;;;;5036165;28;20239;-79
2023/06/30 02:26:25;;;;;;;;;;;17.00;99.90;;;;;;5022444;28;19921;-78
2023/06/30 02:28:51;;;;;;;;;;;16.90;99.90;;;;;;4996943;28;20391;-80
2023/06/30 02:31:16;;;;;;;;;;;16.90;99.90;;;;;;5037275;28;19913;-79
2023/06/30 02:33:42;;;;;;;;;;;16.90;99.90;;;;;;5021892;28;19916;-79
2023/06/30 02:36:09;;;;;;;;;;;16.80;99.90;;;;;;5000991;28;20348;-79
2023/06/30 02:38:35;;;;;;;;;;;16.70;99.90;;;;;;5022933;28;19919;-80
2023/06/30 02:41:00;;;;;;;;;;;16.70;99.90;;;;;;5022412;28;20260;-79
2023/06/30 02:43:26;;;;;;;;;;;16.60;99.90;;;;;;4998591;28;19921;-79
2023/06/30 02:45:51;;;;;;;;;;;16.60;99.90;;;;;;4997572;28;19917;-79
2023/06/30 02:48:22;;;;;;;;;;;16.50;99.90;;;;;;5005992;28;19991;-79
2023/06/30 02:50:50;;;;;;;;;;;16.50;99.90;;;;;;5022176;28;19917;-79
2023/06/30 02:53:15;;;;;;;;;;;16.50;99.90;;;;;;5021618;28;19996;-80
2023/06/30 02:55:41;;;;;;;;;;;16.50;99.90;;;;;;5014004;28;20483;-78
2023/06/30 02:58:08;;;;;;;;;;;16.50;99.90;;;;;;4999602;28;19979;-78
2023/06/30 03:00:34;;;;;;;;;;;16.40;99.90;;;;;;5022974;28;19916;-79
2023/06/30 03:03:00;;;;;;;;;;;16.40;99.90;;;;;;5036802;28;19928;-78
2023/06/30 03:05:26;;;;;;;;;;;16.40;99.90;;;;;;5023371;28;19976;-79
2023/06/30 03:07:51;;;;;;;;;;;16.40;99.90;;;;;;5022837;28;20372;-79
2023/06/30 03:10:17;;;;;;;;;;;16.40;99.90;;;;;;5037610;28;19912;-78
2023/06/30 03:12:42;;;;;;;;;;;16.30;99.90;;;;;;4999865;28;19963;-78
2023/06/30 03:15:08;;;;;;;;;;;16.30;99.90;;;;;;5020146;28;19994;-78
2023/06/30 03:17:34;;;;;;;;;;;16.30;99.90;;;;;;5021696;28;19917;-79
2023/06/30 03:19:59;;;;;;;;;;;16.30;99.90;;;;;;5018280;28;20327;-78
2023/06/30 03:22:25;;;;;;;;;;;16.20;99.90;;;;;;5022287;28;19908;-80
2023/06/30 03:24:52;;;;;;;;;;;16.20;99.90;;;;;;4999130;28;19913;-79
2023/06/30 03:27:19;;;;;;;;;;;16.10;99.90;;;;;;5022426;28;19913;-78
2023/06/30 03:29:45;;;;;;;;;;;16.10;99.90;;;;;;5037089;28;20339;-79
2023/06/30 03:32:10;;;;;;;;;;;16.10;99.90;;;;;;5021860;28;19913;-79
2023/06/30 03:34:37;;;;;;;;;;;16.00;99.90;;;;;;4999475;28;19913;-79
2023/06/30 03:37:03;;;;;;;;;;;16.00;99.90;;;;;;5018261;28;19913;-79
2023/06/30 03:39:29;;;;;;;;;;;16.00;99.90;;;;;;5022359;28;19935;-78
2023/06/30 03:41:54;;;;;;;;;;;16.00;99.90;;;;;;5015448;28;20396;-79
2023/06/30 03:44:20;;;;;;;;;;;15.90;99.90;;;;;;4997729;28;19925;-79
2023/06/30 03:46:46;;;;;;;;;;;15.90;99.90;;;;;;5019619;28;19959;-80
2023/06/30 03:49:12;;;;;;;;;;;15.90;99.90;;;;;;4999747;28;20145;-79
2023/06/30 03:51:37;;;;;;;;;;;15.90;99.90;;;;;;4999591;28;19923;-78
2023/06/30 03:54:03;;;;;;;;;;;15.90;99.90;;;;;;5035827;28;19994;-79
2023/06/30 03:56:28;;;;;;;;;;;15.80;99.90;;;;;;5022318;28;19917;-79
2023/06/30 03:58:54;;;;;;;;;;;15.80;99.90;;;;;;5020785;28;19909;-79
2023/06/30 04:01:20;;;;;;;;;;;15.80;99.90;;;;;;4998271;28;19971;-80
2023/06/30 04:03:46;;;;;;;;;;;15.80;99.90;;;;;;5036442;28;20012;-78
2023/06/30 04:06:12;;;;;;;;;;;15.80;99.90;;;;;;5021095;28;19909;-79
2023/06/30 04:08:38;;;;;;;;;;;15.80;99.90;;;;;;4999323;28;20258;-79
2023/06/30 04:11:03;;;;;;;;;;;15.70;99.90;;;;;;4995735;28;19917;-79
2023/06/30 04:13:29;;;;;;;;;;;15.70;99.90;;;;;;5021367;28;19932;-80
2023/06/30 04:15:55;;;;;;;;;;;15.70;99.90;;;;;;5021736;28;19909;-79
2023/06/30 04:18:20;;;;;;;;;;;15.70;99.90;;;;;;5021511;28;19917;-79
2023/06/30 04:20:49;;;;;;;;;;;15.70;99.90;;;;;;4996339;28;22306;-77
2023/06/30 04:23:31;;;;;;;;;;;15.70;99.90;;;;;;5032010;28;20387;-78
2023/06/30 04:25:58;;;;;;;;;;;15.70;99.90;;;;;;5019994;28;19924;-78
2023/06/30 04:28:24;;;;;;;;;;;15.70;99.90;;;;;;5019659;28;20269;-82
2023/06/30 04:30:49;;;;;;;;;;;15.70;99.90;;;;;;5039768;28;19921;-78
2023/06/30 04:33:15;;;;;;;;;;;15.80;99.90;;;;;;5003344;28;20114;-79
2023/06/30 04:35:44;;;;;;;;;;;15.80;99.90;;;;;;5024799;28;19949;-78
2023/06/30 04:38:09;;;;;;;;;;;15.70;99.90;;;;;;5025112;28;19909;-79
2023/06/30 04:40:35;;;;;;;;;;;15.80;99.90;;;;;;5000851;28;20334;-78
2023/06/30 04:43:02;;;;;;;;;;;15.80;99.90;;;;;;5023808;28;20620;-78
2023/06/30 04:45:28;;;;;;;;;;;15.80;99.90;;;;;;5024615;28;20419;-79
2023/06/30 04:47:53;;;;;;;;;;;15.80;99.90;;;;;;4998790;28;19913;-79
2023/06/30 04:50:23;;;;;;;;;;;15.80;99.90;;;;;;5024349;28;19978;-79
2023/06/30 04:52:48;;;;;;;;;;;15.80;99.90;;;;;;5024313;28;19972;-79
2023/06/30 04:55:13;;;;;;;;;;;15.80;99.90;;;;;;5000498;28;20368;-79
2023/06/30 04:57:40;;;;;;;;;;;15.90;99.90;;;;;;5024191;28;19932;-79
2023/06/30 05:00:09;;;;;;;;;;;15.90;99.90;;;;;;5040335;28;19913;-79
2023/06/30 05:02:34;;;;;;;;;;;15.90;99.90;;;;;;5022911;28;19921;-78
2023/06/30 05:05:01;;;;;;;;;;;15.90;99.90;;;;;;5024588;28;19939;-79
2023/06/30 05:07:37;;;;;;;;;;;15.90;99.90;;;;;;5039971;28;20007;-79
2023/06/30 05:10:03;;;;;;;;;;;15.90;99.90;;;;;;5001531;28;19913;-78
2023/06/30 05:12:28;;;;;;;;;;;15.90;99.90;;;;;;5000663;28;19963;-79
2023/06/30 05:14:54;;;;;;;;;;;15.90;99.90;;;;;;5003698;28;19915;-79
2023/06/30 05:17:19;;;;;;;;;;;15.90;99.90;;;;;;5038602;28;19920;-78
2023/06/30 05:19:45;;;;;;;;;;;15.90;99.90;;;;;;5002383;28;20423;-78
2023/06/30 05:22:10;;;;;;;;;;;15.90;99.90;;;;;;5039227;28;19924;-79
2023/06/30 05:24:36;;;;;;;;;;;16.00;99.90;;;;;;5001663;28;19992;-78
2023/06/30 05:27:01;;;;;;;;;;;16.00;99.90;;;;;;5007877;28;19963;-78
2023/06/30 05:29:31;;;;;;;;;;;16.00;99.90;;;;;;5022998;28;19913;-79
2023/06/30 05:31:56;;;;;;;;;;;16.00;99.90;;;;;;5001242;28;19913;-79
2023/06/30 05:34:22;;;;;;;;;;;16.00;99.90;;;;;;5006174;28;19915;-78
2023/06/30 05:36:47;;;;;;;;;;;16.10;99.90;;;;;;5022964;28;19913;-78
2023/06/30 05:39:14;;;;;;;;;;;16.10;99.90;;;;;;5023723;28;19917;-79
2023/06/30 05:41:40;;;;;;;;;;;16.10;99.90;;;;;;5005350;28;19925;-78
2023/06/30 05:44:07;;;;;;;;;;;16.10;99.90;;;;;;5021964;28;20619;-79
2023/06/30 05:46:34;;;;;;;;;;;16.10;99.90;;;;;;5023371;28;20068;-78
2023/06/30 05:49:02;;;;;;;;;;;16.20;99.90;;;;;;5022000;28;19912;-79
2023/06/30 05:51:28;;;;;;;;;;;16.20;99.90;;;;;;5022884;28;19917;-79
2023/06/30 05:53:54;;;;;;;;;;;16.20;99.90;;;;;;4997183;28;20788;-78
2023/06/30 05:56:20;;;;;;;;;;;16.20;99.90;;;;;;5038033;28;20003;-79
2023/06/30 05:58:48;;;;;;;;;;;16.30;99.90;;;;;;5022799;28;19909;-79
2023/06/30 06:01:14;;;;;;;;;;;16.30;99.90;;;;;;5005552;28;19917;-79
2023/06/30 06:03:39;;;;;;;;;;;16.30;99.90;;;;;;4998790;28;19928;-79
2023/06/30 06:06:05;;;;;;;;;;;16.40;99.90;;;;;;5020230;28;19952;-79
2023/06/30 06:08:33;;;;;;;;;;;16.40;99.90;;;;;;4999444;28;20428;-78
2023/06/30 06:10:59;;;;;;;;;;;16.40;99.90;;;;;;5019571;28;20003;-79
2023/06/30 06:13:38;;;;;;;;;;;16.50;99.90;;;;;;5036378;28;19989;-79
2023/06/30 06:16:07;;;;;;;;;;;16.40;99.90;;;;;;5020282;28;19909;-78
2023/06/30 06:18:33;;;;;;;;;;;16.50;99.90;;;;;;5037974;28;19917;-79
2023/06/30 06:20:59;;;;;;;;;;;16.50;99.90;;;;;;5035704;28;19928;-77
2023/06/30 06:23:25;;;;;;;;;;;16.50;99.90;;;;;;5021857;28;19927;-79
2023/06/30 06:25:51;;;;;;;;;;;16.50;99.90;;;;;;5022026;28;19921;-79
2023/06/30 06:28:17;;;;;;;;;;;16.60;99.90;;;;;;4999446;28;20024;-78
2023/06/30 06:30:48;;;;;;;;;;;16.60;99.90;;;;;;5022248;28;19955;-79
2023/06/30 06:33:17;;;;;;;;;;;16.60;99.90;;;;;;5022602;28;19909;-79
2023/06/30 06:35:45;;;;;;;;;;;16.70;99.90;;;;;;5017031;28;19937;-79
2023/06/30 06:38:11;;;;;;;;;;;16.70;99.90;;;;;;5021462;28;20352;-79
2023/06/30 06:40:37;;;;;;;;;;;16.70;99.90;;;;;;4998659;28;19913;-78
2023/06/30 06:43:02;;;;;;;;;;;16.70;99.90;;;;;;4954723;28;1870256;-78
2023/06/30 06:45:28;;;;;;;;;;;16.70;99.90;;;;;;5020659;28;19951;-79
2023/06/30 06:48:13;;;;;;;;;;;16.80;99.90;;;;;;5037061;28;19921;-79
2023/06/30 06:50:38;;;;;;;;;;;16.80;99.90;;;;;;5038052;28;20144;-78
2023/06/30 06:53:04;;;;;;;;;;;16.80;99.90;;;;;;4998635;28;19913;-78
2023/06/30 06:55:29;;;;;;;;;;;16.90;99.90;;;;;;5001226;28;19920;-79
2023/06/30 06:57:55;;;;;;;;;;;16.80;99.90;;;;;;5037262;28;19939;-79
2023/06/30 07:00:41;;;;;;;;;;;16.90;99.90;;;;;;4999090;28;20574;-80
2023/06/30 07:03:07;;;;;;;;;;;16.90;99.90;;;;;;5005902;28;19931;-80
2023/06/30 07:05:32;;;;;;;;;;;17.00;99.90;;;;;;5000633;28;19912;-79
2023/06/30 07:07:58;;;;;;;;;;;17.00;99.90;;;;;;5005251;28;19952;-80
2023/06/30 07:10:24;;;;;;;;;;;17.00;99.90;;;;;;5023045;28;19919;-81
2023/06/30 07:12:52;;;;;;;;;;;17.10;99.90;;;;;;5003081;28;20372;-79
2023/06/30 07:15:19;;;;;;;;;;;17.10;99.90;;;;;;5016199;28;19948;-79
2023/06/30 07:17:44;;;;;;;;;;;17.10;99.90;;;;;;4999513;28;19917;-79
2023/06/30 07:20:10;;;;;;;;;;;17.10;99.90;;;;;;5019650;28;19913;-78
2023/06/30 07:22:36;;;;;;;;;;;17.20;99.90;;;;;;5022241;28;20110;-78
2023/06/30 07:25:03;;;;;;;;;;;17.20;99.90;;;;;;5022541;28;20412;-80
2023/06/30 07:27:29;;;;;;;;;;;17.20;99.90;;;;;;5004012;28;19968;-79
2023/06/30 07:29:58;;;;;;;;;;;17.30;99.90;;;;;;5019557;28;19955;-79
2023/06/30 07:32:25;;;;;;;;;;;17.30;99.90;;;;;;5019551;28;19913;-80
2023/06/30 07:34:50;;;;;;;;;;;17.40;99.90;;;;;;5020427;28;19990;-80
2023/06/30 07:37:17;;;;;;;;;;;17.40;99.90;;;;;;5037360;28;19931;-79
2023/06/30 07:39:43;;;;;;;;;;;17.50;99.90;;;;;;5021817;28;19944;-79
2023/06/30 07:42:09;;;;;;;;;;;17.50;99.90;;;;;;5019408;28;20002;-78
2023/06/30 07:44:34;;;;;;;;;;;17.50;99.90;;;;;;5018025;28;19917;-78
2023/06/30 07:47:00;;;;;;;;;;;17.60;99.90;;;;;;5022543;28;19917;-78
2023/06/30 07:49:32;;;;;;;;;;;17.70;99.90;;;;;;4999774;28;19913;-80
2023/06/30 07:51:58;;;;;;;;;;;17.80;99.90;;;;;;5036932;28;19919;-78
2023/06/30 07:54:24;;;;;;;;;;;17.80;99.90;;;;;;4995548;28;20265;-79
2023/06/30 07:56:52;;;;;;;;;;;17.80;99.90;;;;;;5022278;28;19924;-79
2023/06/30 07:59:19;;;;;;;;;;;17.80;99.90;;;;;;4998579;28;19917;-80
2023/06/30 08:01:46;;;;;;;;;;;17.80;99.90;;;;;;4999014;28;19909;-79
2023/06/30 08:04:12;;;;;;;;;;;17.90;99.90;;;;;;4999922;28;19925;-80
2023/06/30 08:06:38;;;;;;;;;;;18.00;99.90;;;;;;5022144;28;19917;-81
2023/06/30 08:09:07;;;;;;;;;;;18.10;99.90;;;;;;5017908;28;19917;-81
2023/06/30 08:11:33;;;;;;;;;;;18.10;99.90;;;;;;5036871;28;19920;-79
2023/06/30 08:14:01;;;;;;;;;;;18.20;99.90;;;;;;5019204;28;19913;-79
2023/06/30 08:16:34;;;;;;;;;;;18.30;99.90;;;;;;5020106;28;19913;-79
2023/06/30 08:18:59;;;;;;;;;;;18.40;99.90;;;;;;5021731;28;19996;-79
2023/06/30 08:21:25;;;;;;;;;;;18.50;99.90;;;;;;5001215;28;19992;-80
2023/06/30 08:23:50;;;;;;;;;;;18.50;99.90;;;;;;5015264;28;20019;-80
2023/06/30 08:26:16;;;;;;;;;;;18.60;99.90;;;;;;5003733;28;20007;-79
2023/06/30 08:28:41;;;;;;;;;;;18.70;99.90;;;;;;5034697;28;20281;-80
2023/06/30 08:31:07;;;;;;;;;;;18.70;99.90;;;;;;5003067;28;20357;-80
2023/06/30 08:33:34;;;;;;;;;;;18.80;99.90;;;;;;5000908;28;19975;-80
2023/06/30 08:36:01;;;;;;;;;;;19.00;99.90;;;;;;5000973;28;19924;-79
2023/06/30 08:38:28;;;;;;;;;;;19.10;99.90;;;;;;5019824;28;19966;-80
2023/06/30 08:40:55;;;;;;;;;;;19.20;99.90;;;;;;5035801;28;19925;-79
2023/06/30 08:43:21;;;;;;;;;;;19.20;99.90;;;;;;5000357;28;19925;-80
2023/06/30 08:45:49;;;;;;;;;;;19.30;99.90;;;;;;5021744;28;19913;-78
2023/06/30 08:48:15;;;;;;;;;;;19.40;99.90;;;;;;4999687;28;19975;-79
2023/06/30 08:50:42;;;;;;;;;;;19.50;99.90;;;;;;5036516;28;19913;-79
2023/06/30 08:53:07;;;;;;;;;;;19.60;99.90;;;;;;5001233;28;19913;-79
2023/06/30 08:55:38;;;;;;;;;;;19.70;99.90;;;;;;5016344;28;19921;-80
2023/06/30 08:58:04;;;;;;;;;;;19.80;99.90;;;;;;5020344;28;19963;-79
2023/06/30 09:00:29;;;;;;;;;;;19.90;99.90;;;;;;5002467;28;19917;-78
2023/06/30 09:03:04;;;;;;;;;;;20.00;99.90;;;;;;5048819;28;19966;-79
2023/06/30 09:05:32;;;;;;;;;;;20.00;99.90;;;;;;5047429;28;19913;-78
2023/06/30 09:07:58;;;;;;;;;;;20.10;99.90;;;;;;5046304;28;19913;-79
2023/06/30 09:10:26;;;;;;;;;;;20.30;99.90;;;;;;5029551;28;19909;-79
2023/06/30 09:13:00;;;;;;;;;;;20.40;99.90;;;;;;4997870;28;19917;-79
2023/06/30 09:15:26;;;;;;;;;;;20.60;99.90;;;;;;5014328;28;19952;-80
2023/06/30 09:17:53;;;;;;;;;;;20.90;99.90;;;;;;5039880;28;19909;-79
2023/06/30 09:20:20;;;;;;;;;;;21.10;99.90;;;;;;5039574;28;21087;-79
2023/06/30 09:22:50;;;;;;;;;;;21.30;99.90;;;;;;5024105;28;19956;-79
2023/06/30 09:25:26;;;;;;;;;;;21.40;99.90;;;;;;5023326;28;19921;-79
2023/06/30 09:27:54;;;;;;;;;;;21.40;99.90;;;;;;5023992;28;20440;-77
2023/06/30 09:30:33;;;;;;;;;;;21.50;99.90;;;;;;5017929;28;20308;-80
2023/06/30 09:32:58;;;;;;;;;;;21.70;99.90;;;;;;5023246;28;19913;-80
2023/06/30 09:35:24;;;;;;;;;;;21.90;99.90;;;;;;5022951;28;19928;-79
2023/06/30 09:37:50;;;;;;;;;;;22.40;99.90;;;;;;5024089;28;19917;-80
2023/06/30 09:40:23;;;;;;;;;;;23.00;99.90;;;;;;5023126;28;20000;-80
2023/06/30 09:42:53;;;;;;;;;;;23.40;99.90;;;;;;5021140;28;19928;-80
2023/06/30 09:45:18;;;;;;;;;;;23.40;99.90;;;;;;5022336;28;19928;-81
2023/06/30 09:47:50;;;;;;;;;;;23.20;99.80;;;;;;5024025;28;20273;-79
2023/06/30 09:50:20;;;;;;;;;;;23.10;99.90;;;;;;5022392;28;20047;-80
2023/06/30 09:52:45;;;;;;;;;;;22.90;99.90;;;;;;5040976;28;19987;-78
2023/06/30 09:55:13;;;;;;;;;;;22.80;99.90;;;;;;5039859;28;19913;-80
2023/06/30 09:57:43;;;;;;;;;;;22.70;99.90;;;;;;5023979;28;20039;-77
2023/06/30 10:00:16;;;;;;;;;;;22.80;99.90;;;;;;5016469;28;19924;-78
2023/06/30 10:02:42;;;;;;;;;;;22.70;99.90;;;;;;5022016;28;19995;-79
2023/06/30 10:05:08;;;;;;;;;;;22.80;99.90;;;;;;5023285;28;19971;-80
2023/06/30 10:07:35;;;;;;;;;;;23.00;99.90;;;;;;5023260;28;20351;-79
2023/06/30 10:10:04;;;;;;;;;;;23.30;99.90;;;;;;5020991;28;19920;-79
2023/06/30 10:12:33;;;;;;;;;;;23.60;99.60;;;;;;5000642;28;20262;-80
2023/06/30 10:15:00;;;;;;;;;;;23.90;99.50;;;;;;5038647;28;20439;-81
2023/06/30 10:17:26;;;;;;;;;;;24.30;99.40;;;;;;5023339;28;19910;-80
2023/06/30 10:19:54;;;;;;;;;;;24.60;98.80;;;;;;5023801;28;19912;-80
2023/06/30 10:22:23;;;;;;;;;;;24.60;98.70;;;;;;5024388;28;20012;-80
2023/06/30 10:24:49;;;;;;;;;;;24.50;98.90;;;;;;5003728;28;20648;-80
2023/06/30 10:27:18;;;;;;;;;;;24.40;99.10;;;;;;5037410;28;20379;-80
2023/06/30 10:29:45;;;;;;;;;;;24.50;99.20;;;;;;5023110;28;19919;-80
2023/06/30 10:32:20;;;;;;;;;;;24.60;99.20;;;;;;5037435;28;19931;-81
2023/06/30 10:34:47;;;;;;;;;;;24.60;99.10;;;;;;5023105;28;19909;-82
2023/06/30 10:37:14;;;;;;;;;;;24.40;99.10;;;;;;5017575;28;19928;-81
2023/06/30 10:39:41;;;;;;;;;;;24.20;98.80;;;;;;5022873;28;19917;-81
2023/06/30 10:42:10;;;;;;;;;;;24.10;98.50;;;;;;5022488;28;19936;-83
2023/06/30 10:44:45;;;;;;;;;;;24.10;98.50;;;;;;5020139;28;20288;-81
2023/06/30 10:47:14;;;;;;;;;;;24.00;98.30;;;;;;5020903;28;20016;-82
2023/06/30 10:49:40;;;;;;;;;;;23.90;98.20;;;;;;5037935;28;19963;-83
2023/06/30 10:52:10;;;;;;;;;;;23.90;98.30;;;;;;5037166;28;19920;-83
2023/06/30 10:54:46;;;;;;;;;;;23.90;98.40;;;;;;4999447;28;19916;-83
2023/06/30 10:57:16;;;;;;;;;;;24.10;98.40;;;;;;5022743;28;19975;-83
2023/06/30 10:59:43;;;;;;;;;;;24.20;98.30;;;;;;5020353;28;20013;-82
2023/06/30 11:02:10;;;;;;;;;;;24.50;98.30;;;;;;5035674;28;19925;-83
2023/06/30 11:04:37;;;;;;;;;;;24.90;97.80;;;;;;5019693;28;19916;-80
2023/06/30 11:07:06;;;;;;;;;;;25.40;97.50;;;;;;5021130;28;19940;-79
2023/06/30 11:09:50;;;;;;;;;;;25.60;97.30;;;;;;5021230;28;19920;-81
2023/06/30 11:12:25;;;;;;;;;;;26.20;96.60;;;;;;5019665;28;19913;-79
2023/06/30 11:14:58;;;;;;;;;;;26.80;96.10;;;;;;5016619;28;19913;-79
2023/06/30 11:17:25;;;;;;;;;;;27.30;95.50;;;;;;5036806;28;20442;-80
2023/06/30 11:19:59;;;;;;;;;;;27.90;95.30;;;;;;5037306;28;19921;-80
2023/06/30 11:22:25;;;;;;;;;;;28.30;95.00;;;;;;5017482;28;19913;-80
2023/06/30 11:24:52;;;;;;;;;;;28.30;95.10;;;;;;5004100;28;19921;-79
2023/06/30 11:27:18;;;;;;;;;;;28.00;95.30;;;;;;5000220;28;19923;-79
2023/06/30 11:29:46;;;;;;;;;;;27.50;95.50;;;;;;5000107;28;19913;-80
2023/06/30 11:32:13;;;;;;;;;;;27.80;95.60;;;;;;5021688;28;19916;-79
2023/06/30 11:34:38;;;;;;;;;;;28.40;95.50;;;;;;5037084;28;19984;-79
2023/06/30 11:37:04;;;;;;;;;;;28.60;94.60;;;;;;4995537;28;20431;-80
2023/06/30 11:39:36;;;;;;;;;;;28.40;94.00;;;;;;5021913;28;20462;-80
2023/06/30 11:42:02;;;;;;;;;;;28.50;93.80;;;;;;5019715;28;19952;-80
2023/06/30 11:44:27;;;;;;;;;;;28.60;94.10;;;;;;5037121;28;19921;-79
2023/06/30 11:46:55;;;;;;;;;;;28.70;94.20;;;;;;5018254;28;19975;-79
2023/06/30 11:49:22;;;;;;;;;;;28.40;94.30;;;;;;5003929;28;20549;-79
2023/06/30 11:51:53;;;;;;;;;;;27.80;94.10;;;;;;5035606;28;19917;-79
2023/06/30 11:54:28;;;;;;;;;;;27.90;93.70;;;;;;5019722;28;19912;-79
2023/06/30 11:56:56;;;;;;;;;;;27.80;93.40;;;;;;5041885;28;20385;-79
2023/06/30 11:59:22;;;;;;;;;;;27.90;93.30;;;;;;5017065;28;19917;-80
2023/06/30 12:01:48;;;;;;;;;;;28.10;93.00;;;;;;5035383;28;19916;-80
2023/06/30 12:04:33;;;;;;;;;;;28.40;92.60;;;;;;5020487;28;19924;-79
2023/06/30 12:07:03;;;;;;;;;;;28.60;92.00;;;;;;4995810;28;19917;-79
2023/06/30 12:09:30;;;;;;;;;;;29.00;91.90;;;;;;4998809;28;19913;-80
2023/06/30 12:11:56;;;;;;;;;;;29.00;91.00;;;;;;4998778;28;19924;-80
2023/06/30 12:14:25;;;;;;;;;;;29.10;90.90;;;;;;4999624;28;20384;-80
2023/06/30 12:16:51;;;;;;;;;;;29.30;90.70;;;;;;5020356;28;19917;-79
2023/06/30 12:19:22;;;;;;;;;;;28.80;89.50;;;;;;5019290;28;19920;-79
2023/06/30 12:21:52;;;;;;;;;;;28.20;90.20;;;;;;4997777;28;19913;-78
2023/06/30 12:24:19;;;;;;;;;;;27.60;90.80;;;;;;5020538;28;19917;-79
2023/06/30 12:26:45;;;;;;;;;;;27.70;91.00;;;;;;5013303;28;20373;-79
2023/06/30 12:29:10;;;;;;;;;;;28.00;90.80;;;;;;5013644;28;19917;-80
2023/06/30 12:31:42;;;;;;;;;;;28.00;90.80;;;;;;5001997;28;19913;-80
2023/06/30 12:34:07;;;;;;;;;;;28.30;90.40;;;;;;4996125;28;19989;-78
2023/06/30 12:36:36;;;;;;;;;;;28.50;87.90;;;;;;5020837;28;21162;-80
2023/06/30 12:39:02;;;;;;;;;;;28.60;88.80;;;;;;5018248;28;19917;-79
2023/06/30 12:41:27;;;;;;;;;;;29.10;89.40;;;;;;5002962;28;19967;-80
2023/06/30 12:43:56;;;;;;;;;;;29.20;89.70;;;;;;5019028;28;19920;-80
2023/06/30 12:46:23;;;;;;;;;;;29.40;89.70;;;;;;4998148;28;19939;-79
2023/06/30 12:48:52;;;;;;;;;;;29.50;88.90;;;;;;4999763;28;19917;-80
2023/06/30 12:51:22;;;;;;;;;;;29.60;89.40;;;;;;5022008;28;19912;-80
2023/06/30 12:53:48;;;;;;;;;;;30.20;89.70;;;;;;5015996;28;19920;-79
2023/06/30 12:56:14;;;;;;;;;;;30.50;87.80;;;;;;5020011;28;19921;-80
2023/06/30 12:58:39;;;;;;;;;;;30.50;85.80;;;;;;5024310;28;20361;-81
2023/06/30 13:01:07;;;;;;;;;;;30.70;86.00;;;;;;5006272;28;19913;-80
2023/06/30 13:03:34;;;;;;;;;;;30.70;85.70;;;;;;5001999;28;19921;-80
2023/06/30 13:06:00;;;;;;;;;;;30.70;86.30;;;;;;5038500;28;20511;-79
2023/06/30 13:08:25;;;;;;;;;;;30.30;86.70;;;;;;5002111;28;19909;-80
2023/06/30 13:10:51;;;;;;;;;;;29.90;87.60;;;;;;5023634;28;19962;-80
2023/06/30 13:13:17;;;;;;;;;;;29.60;86.80;;;;;;5002791;28;19916;-80
2023/06/30 13:15:43;;;;;;;;;;;29.00;86.00;;;;;;5003173;28;19924;-79
2023/06/30 13:18:11;;;;;;;;;;;28.20;87.60;;;;;;5002092;28;19909;-79
2023/06/30 13:20:37;;;;;;;;;;;27.80;87.90;;;;;;4999741;28;19936;-79
2023/06/30 13:23:02;;;;;;;;;;;27.50;88.60;;;;;;5021675;28;19917;-80
2023/06/30 13:25:29;;;;;;;;;;;27.70;89.10;;;;;;5036336;28;19917;-80
2023/06/30 13:27:58;;;;;;;;;;;27.70;89.10;;;;;;5023685;28;20422;-79
2023/06/30 13:30:23;;;;;;;;;;;27.80;89.30;;;;;;5038199;28;19913;-79
2023/06/30 13:32:52;;;;;;;;;;;27.80;89.50;;;;;;5000786;28;19909;-79
2023/06/30 13:35:18;;;;;;;;;;;27.80;89.70;;;;;;5023993;28;19928;-79
2023/06/30 13:37:56;;;;;;;;;;;27.90;90.00;;;;;;5038652;28;20387;-80
2023/06/30 13:40:23;;;;;;;;;;;28.00;88.00;;;;;;5038287;28;20011;-79
2023/06/30 13:42:49;;;;;;;;;;;28.20;87.00;;;;;;5013322;28;19931;-79
2023/06/30 13:45:16;;;;;;;;;;;28.30;85.70;;;;;;5022787;28;19967;-79
2023/06/30 13:47:45;;;;;;;;;;;28.50;85.90;;;;;;5022821;28;19913;-80
2023/06/30 13:50:11;;;;;;;;;;;28.80;85.60;;;;;;5014632;28;19994;-80
2023/06/30 13:52:36;;;;;;;;;;;28.80;83.30;;;;;;5005570;28;19917;-80
2023/06/30 13:55:03;;;;;;;;;;;28.40;82.30;;;;;;5021934;28;20289;-80
2023/06/30 13:57:28;;;;;;;;;;;28.00;82.90;;;;;;5039622;28;19927;-80
2023/06/30 13:59:54;;;;;;;;;;;27.80;83.30;;;;;;5010183;28;19960;-80
2023/06/30 14:02:20;;;;;;;;;;;28.00;83.80;;;;;;5038668;28;19917;-80
2023/06/30 14:04:46;;;;;;;;;;;28.20;82.90;;;;;;5000707;28;19912;-79
2023/06/30 14:07:16;;;;;;;;;;;28.20;82.60;;;;;;5035817;28;19961;-79
2023/06/30 14:09:42;;;;;;;;;;;28.10;83.00;;;;;;4999208;28;19913;-79
2023/06/30 14:12:09;;;;;;;;;;;28.30;83.50;;;;;;4987830;28;20695;-80
2023/06/30 14:14:34;;;;;;;;;;;28.20;83.50;;;;;;5022878;28;19917;-79
2023/06/30 14:17:00;;;;;;;;;;;27.90;83.30;;;;;;5020009;28;20383;-79